Time;durP1;ratioP1;P1;durP2;ratioP2;P2;SDS_P1;SDS_P2;PMS_P1;PMS_P2;Temp;Humidity;BMP_temperature;BMP_pressure;BME280_temperature;BME280_humidity;BME280_pressure;Samples;Min_cycle;Max_cycle;Signal;HPM_P1;HPM_P2
2023/07/18 00:01:39;;;;;;;5.30;2.50;;;19.20;1.00;;;;;;5031529;28;20679;-77
2023/07/18 00:04:05;;;;;;;4.30;2.30;;;19.20;1.00;;;;;;5031551;28;20181;-76
2023/07/18 00:06:31;;;;;;;6.50;2.70;;;19.50;1.00;;;;;;5029220;28;20559;-76
2023/07/18 00:08:56;;;;;;;5.43;2.60;;;19.10;1.00;;;;;;5027322;28;20600;-76
2023/07/18 00:11:22;;;;;;;5.77;2.60;;;19.10;1.00;;;;;;5019586;28;20639;-75
2023/07/18 00:13:48;;;;;;;8.70;2.73;;;19.00;1.00;;;;;;5026196;28;20604;-77
2023/07/18 00:16:13;;;;;;;4.70;2.70;;;19.00;1.00;;;;;;5029013;28;20247;-76
2023/07/18 00:18:39;;;;;;;4.80;2.43;;;18.90;1.00;;;;;;5028326;28;20273;-74
2023/07/18 00:21:05;;;;;;;6.30;3.03;;;18.80;1.00;;;;;;5028250;28;20223;-76
2023/07/18 00:23:30;;;;;;;5.33;2.67;;;18.80;1.00;;;;;;5027571;28;20182;-76
2023/07/18 00:25:56;;;;;;;5.20;2.50;;;19.70;1.00;;;;;;5033500;28;20439;-76
2023/07/18 00:28:21;;;;;;;8.30;3.10;;;18.70;1.00;;;;;;5023605;28;20232;-76
2023/07/18 00:30:47;;;;;;;7.27;2.70;;;17.90;1.00;;;;;;5032413;28;20221;-76
2023/07/18 00:33:12;;;;;;;6.13;2.73;;;18.60;1.00;;;;;;5035562;22;20226;-74
2023/07/18 00:35:38;;;;;;;6.97;2.60;;;18.50;1.00;;;;;;5011125;28;20668;-74
2023/07/18 00:38:03;;;;;;;10.33;2.70;;;18.40;1.00;;;;;;5012113;28;20313;-75
2023/07/18 00:40:29;;;;;;;4.73;2.27;;;18.20;1.00;;;;;;5012976;28;20560;-77
2023/07/18 00:42:54;;;;;;;7.47;3.27;;;18.60;1.00;;;;;;5011732;28;20197;-74
2023/07/18 00:45:20;;;;;;;5.07;2.63;;;18.20;1.00;;;;;;5013119;28;20190;-75
2023/07/18 00:47:46;;;;;;;5.00;2.60;;;18.20;1.00;;;;;;5012588;28;20186;-75
2023/07/18 00:50:15;;;;;;;4.07;2.33;;;18.30;1.00;;;;;;5010943;28;20226;-74
2023/07/18 00:52:48;;;;;;;4.17;2.30;;;18.40;1.00;;;;;;5012703;28;20214;-76
2023/07/18 00:55:14;;;;;;;8.33;3.17;;;18.40;1.00;;;;;;5012580;28;20539;-75
2023/07/18 00:57:42;;;;;;;11.67;2.90;;;18.40;1.00;;;;;;5008570;28;20541;-77
2023/07/18 01:00:11;;;;;;;7.70;2.57;;;18.30;1.00;;;;;;5011458;28;20179;-74
2023/07/18 01:02:38;;;;;;;5.43;2.57;;;18.10;1.00;;;;;;5012372;28;20460;-75
2023/07/18 01:05:04;;;;;;;7.43;3.10;;;18.20;1.00;;;;;;5028233;28;20512;-74
2023/07/18 01:07:29;;;;;;;3.87;2.47;;;18.20;1.00;;;;;;5011499;28;20519;-75
2023/07/18 01:10:25;;;;;;;5.90;3.00;;;18.10;1.00;;;;;;5012543;28;20465;-74
2023/07/18 01:12:52;;;;;;;6.40;2.57;;;18.00;1.00;;;;;;5011719;28;20221;-76
2023/07/18 01:15:22;;;;;;;4.83;2.57;;;17.90;1.00;;;;;;5011353;28;21029;-75
2023/07/18 01:17:49;;;;;;;6.37;2.63;;;17.80;1.00;;;;;;5010279;28;20465;-75
2023/07/18 01:20:18;;;;;;;4.03;2.77;;;17.80;1.00;;;;;;5011848;28;20441;-75
2023/07/18 01:22:45;;;;;;;8.30;2.90;;;17.70;1.00;;;;;;5011990;28;20441;-74
2023/07/18 01:25:14;;;;;;;7.83;2.57;;;17.70;1.00;;;;;;5010569;28;20426;-74
2023/07/18 01:27:40;;;;;;;8.00;2.90;;;17.70;1.00;;;;;;5010907;28;20455;-75
2023/07/18 01:30:06;;;;;;;4.63;2.37;;;17.80;1.00;;;;;;5010702;28;20516;-77
2023/07/18 01:32:33;;;;;;;6.10;3.00;;;17.80;1.00;;;;;;5011750;28;20218;-77
2023/07/18 01:35:05;;;;;;;7.40;2.87;;;17.70;1.00;;;;;;5010310;28;20441;-75
2023/07/18 01:37:32;;;;;;;4.93;2.60;;;17.70;1.00;;;;;;5009750;28;20445;-75
2023/07/18 01:39:58;;;;;;;6.10;2.77;;;17.70;1.00;;;;;;5010621;28;20443;-77
2023/07/18 01:42:23;;;;;;;5.03;2.23;;;17.80;1.00;;;;;;5010807;28;20541;-75
2023/07/18 01:44:49;;;;;;;5.03;2.80;;;17.70;1.00;;;;;;5008657;28;20193;-74
2023/07/18 01:47:14;;;;;;;10.70;3.10;;;17.60;1.00;;;;;;5013042;28;20197;-75
2023/07/18 01:49:40;;;;;;;6.63;3.00;;;17.90;1.00;;;;;;5011537;28;20190;-75
2023/07/18 01:52:06;;;;;;;5.20;2.83;;;17.60;1.00;;;;;;5010259;28;20564;-75
2023/07/18 01:54:31;;;;;;;6.20;3.10;;;17.60;1.00;;;;;;5011944;28;20269;-75
2023/07/18 01:56:57;;;;;;;7.13;2.87;;;17.50;1.00;;;;;;5011771;28;20661;-77
2023/07/18 01:59:22;;;;;;;4.93;2.83;;;17.60;1.00;;;;;;5010544;28;20175;-74
2023/07/18 02:01:48;;;;;;;7.13;3.00;;;17.60;1.00;;;;;;5009724;28;21894;-74
2023/07/18 02:04:14;;;;;;;6.67;2.77;;;17.60;1.00;;;;;;5012088;28;20194;-75
2023/07/18 02:06:40;;;;;;;6.83;2.70;;;17.60;1.00;;;;;;5009861;28;20241;-75
2023/07/18 02:09:06;;;;;;;7.73;2.70;;;17.60;1.00;;;;;;5010319;28;20288;-76
2023/07/18 02:11:32;;;;;;;4.63;2.40;;;17.50;1.00;;;;;;5011385;28;20473;-75
2023/07/18 02:13:58;;;;;;;5.30;2.43;;;17.40;1.00;;;;;;5011279;28;20629;-75
2023/07/18 02:16:23;;;;;;;4.60;2.67;;;17.30;1.00;;;;;;5011275;28;20194;-74
2023/07/18 02:18:49;;;;;;;6.50;3.07;;;17.20;1.00;;;;;;5009138;28;20191;-74
2023/07/18 02:21:14;;;;;;;5.90;3.10;;;17.00;1.00;;;;;;5011366;28;20644;-75
2023/07/18 02:23:40;;;;;;;4.70;2.60;;;17.00;1.00;;;;;;5010367;28;20197;-76
2023/07/18 02:26:05;;;;;;;6.90;2.90;;;16.90;1.00;;;;;;5009239;28;20198;-75
2023/07/18 02:28:31;;;;;;;6.50;2.80;;;16.80;1.00;;;;;;5009358;28;20277;-75
2023/07/18 02:30:57;;;;;;;4.87;3.00;;;16.70;1.00;;;;;;5009419;28;20665;-75
2023/07/18 02:33:23;;;;;;;6.60;3.07;;;16.60;1.00;;;;;;5008713;28;20255;-76
2023/07/18 02:35:50;;;;;;;5.50;2.67;;;16.60;1.00;;;;;;5008163;28;20449;-75
2023/07/18 02:38:15;;;;;;;6.73;2.83;;;16.60;1.00;;;;;;5008614;28;20271;-74
2023/07/18 02:40:44;;;;;;;6.70;2.90;;;16.60;1.00;;;;;;5008728;28;20861;-75
2023/07/18 02:43:10;;;;;;;5.67;2.87;;;16.40;1.00;;;;;;5009531;28;20199;-75
2023/07/18 02:45:35;;;;;;;6.27;2.87;;;16.30;1.00;;;;;;5009029;28;20433;-76
2023/07/18 02:48:01;;;;;;;6.97;2.53;;;16.30;1.00;;;;;;5009315;28;20193;-75
2023/07/18 02:50:26;;;;;;;9.53;3.10;;;16.30;1.00;;;;;;5008685;28;20241;-75
2023/07/18 02:52:52;;;;;;;4.60;2.43;;;16.30;1.00;;;;;;5008445;28;20202;-74
2023/07/18 02:55:17;;;;;;;4.77;2.80;;;16.30;1.00;;;;;;5009940;28;20282;-77
2023/07/18 02:57:43;;;;;;;7.07;2.83;;;16.20;1.00;;;;;;5009857;28;20214;-75
2023/07/18 03:00:19;;;;;;;9.77;2.87;;;16.20;1.00;;;;;;5024196;28;20221;-75
2023/07/18 03:02:48;;;;;;;7.17;2.87;;;16.20;1.00;;;;;;5007825;28;20243;-75
2023/07/18 03:05:15;;;;;;;7.10;2.80;;;16.20;1.00;;;;;;5008834;28;20991;-74
2023/07/18 03:07:40;;;;;;;6.47;2.80;;;16.20;1.00;;;;;;5007424;28;20487;-75
2023/07/18 03:10:06;;;;;;;7.43;2.70;;;16.20;1.00;;;;;;5024548;28;20430;-75
2023/07/18 03:12:31;;;;;;;5.63;2.43;;;16.20;1.00;;;;;;5009459;28;20206;-75
2023/07/18 03:14:57;;;;;;;7.30;2.77;;;16.10;1.00;;;;;;5009083;28;20190;-75
2023/07/18 03:17:23;;;;;;;10.70;3.20;;;16.00;1.00;;;;;;5008298;28;20589;-74
2023/07/18 03:19:48;;;;;;;4.40;2.70;;;16.00;1.00;;;;;;5008162;28;20174;-77
2023/07/18 03:22:14;;;;;;;4.63;2.80;;;16.00;1.00;;;;;;5007791;28;20233;-75
2023/07/18 03:24:40;;;;;;;10.53;3.00;;;16.10;1.00;;;;;;5008146;28;20182;-75
2023/07/18 03:27:07;;;;;;;10.00;2.20;;;16.10;1.00;;;;;;5009136;28;20529;-75
2023/07/18 03:29:33;;;;;;;5.93;2.53;;;16.20;1.00;;;;;;5008141;28;20208;-76
2023/07/18 03:31:59;;;;;;;5.33;2.53;;;16.30;1.00;;;;;;5028118;28;20952;-75
2023/07/18 03:34:25;;;;;;;9.83;3.30;;;16.30;1.00;;;;;;5008247;28;20254;-74
2023/07/18 03:36:50;;;;;;;5.50;2.57;;;16.30;1.00;;;;;;5006854;28;20436;-75
2023/07/18 03:39:16;;;;;;;5.10;2.80;;;16.30;1.00;;;;;;5009399;28;20190;-74
2023/07/18 03:41:42;;;;;;;7.00;3.00;;;16.30;1.00;;;;;;5007314;28;20233;-75
2023/07/18 03:44:08;;;;;;;4.30;2.30;;;16.40;1.00;;;;;;5008261;28;20190;-75
2023/07/18 03:46:34;;;;;;;4.23;2.50;;;16.20;1.00;;;;;;5008451;28;20464;-76
2023/07/18 03:48:59;;;;;;;5.60;2.80;;;16.20;1.00;;;;;;5008028;28;20437;-77
2023/07/18 03:51:25;;;;;;;7.40;3.20;;;16.20;1.00;;;;;;5008923;28;20368;-75
2023/07/18 03:53:51;;;;;;;6.30;2.50;;;;;;;;;;5008563;28;20590;-75
2023/07/18 03:56:17;;;;;;;4.77;2.87;;;16.10;1.00;;;;;;5007964;28;20190;-75
2023/07/18 03:58:43;;;;;;;6.40;3.17;;;16.10;1.00;;;;;;5006302;28;20197;-75
2023/07/18 04:01:10;;;;;;;5.17;2.87;;;16.30;1.00;;;;;;5008880;28;20213;-77
2023/07/18 04:03:37;;;;;;;8.10;2.83;;;16.20;1.00;;;;;;5006905;28;20970;-77
2023/07/18 04:06:02;;;;;;;7.10;2.90;;;16.40;1.00;;;;;;5008692;28;20523;-75
2023/07/18 04:08:28;;;;;;;7.17;3.03;;;16.50;1.00;;;;;;5005684;28;20449;-75
2023/07/18 04:10:56;;;;;;;4.50;3.00;;;16.60;1.00;;;;;;5008164;28;20216;-75
2023/07/18 04:13:22;;;;;;;4.97;2.90;;;16.60;1.00;;;;;;5008719;28;20946;-75
2023/07/18 04:15:47;;;;;;;6.93;3.00;;;16.60;1.00;;;;;;5012365;28;20433;-75
2023/07/18 04:18:12;;;;;;;5.53;3.30;;;16.70;1.00;;;;;;5006767;28;20183;-75
2023/07/18 04:20:38;;;;;;;5.57;3.23;;;16.60;1.00;;;;;;5007847;28;20560;-75
2023/07/18 04:23:03;;;;;;;3.63;2.70;;;16.70;1.00;;;;;;5006998;28;20214;-75
2023/07/18 04:25:34;;;;;;;8.13;3.23;;;16.70;1.00;;;;;;5009374;28;20216;-75
2023/07/18 04:28:01;;;;;;;7.67;3.20;;;16.80;1.00;;;;;;5009185;28;20202;-78
2023/07/18 04:30:26;;;;;;;4.03;2.90;;;16.90;1.00;;;;;;5000552;28;20769;-75
2023/07/18 04:32:52;;;;;;;5.70;3.30;;;16.80;1.00;;;;;;5003669;28;20467;-75
2023/07/18 04:35:17;;;;;;;6.03;3.30;;;16.90;1.00;;;;;;5007649;28;20196;-76
2023/07/18 04:37:43;;;;;;;8.80;3.00;;;16.90;1.00;;;;;;5009587;28;20206;-75
2023/07/18 04:40:10;;;;;;;10.07;5.47;;;16.90;1.00;;;;;;5009343;28;20309;-75
2023/07/18 04:42:37;;;;;;;5.00;3.07;;;17.00;1.00;;;;;;5015745;28;20688;-75
2023/07/18 04:45:05;;;;;;;5.73;3.23;;;17.30;1.00;;;;;;5009051;28;20841;-74
2023/07/18 04:47:31;;;;;;;6.60;2.80;;;16.90;1.00;;;;;;5009170;28;20997;-75
2023/07/18 04:49:57;;;;;;;4.10;3.10;;;17.30;1.00;;;;;;5009530;28;20425;-75
2023/07/18 04:52:23;;;;;;;5.00;3.13;;;17.10;1.00;;;;;;5008699;28;20222;-75
2023/07/18 04:54:49;;;;;;;6.53;3.40;;;17.10;1.00;;;;;;5008206;28;20214;-74
2023/07/18 04:57:14;;;;;;;9.50;3.40;;;17.20;1.00;;;;;;5007044;28;20278;-76
2023/07/18 04:59:41;;;;;;;9.23;3.20;;;16.00;1.00;;;;;;5009343;28;20179;-75
2023/07/18 05:02:07;;;;;;;7.20;3.20;;;17.30;1.00;;;;;;5007161;28;20194;-75
2023/07/18 05:04:32;;;;;;;4.50;3.00;;;17.30;1.00;;;;;;5009065;28;20475;-75
2023/07/18 05:06:58;;;;;;;4.77;3.10;;;17.40;1.00;;;;;;5009004;28;20732;-75
2023/07/18 05:09:25;;;;;;;5.30;3.43;;;17.50;1.00;;;;;;5011522;28;20273;-75
2023/07/18 05:11:50;;;;;;;6.67;3.60;;;17.60;1.00;;;;;;5012576;28;20556;-75
2023/07/18 05:14:16;;;;;;;6.13;3.40;;;19.40;1.00;;;;;;5012092;28;20533;-75
2023/07/18 05:16:41;;;;;;;6.53;3.33;;;17.80;1.00;;;;;;5012429;28;20186;-76
2023/07/18 05:19:07;;;;;;;6.93;3.87;;;17.80;1.00;;;;;;5012694;28;20179;-74
2023/07/18 05:21:33;;;;;;;5.07;3.20;;;17.90;1.00;;;;;;5013137;28;20696;-74
2023/07/18 05:23:58;;;;;;;17.20;3.67;;;18.00;1.00;;;;;;5011702;28;20210;-75
2023/07/18 05:26:24;;;;;;;5.67;3.60;;;18.10;1.00;;;;;;5011302;28;20182;-76
2023/07/18 05:28:51;;;;;;;7.60;4.07;;;18.20;1.00;;;;;;5012414;28;20183;-75
2023/07/18 05:31:16;;;;;;;5.97;3.60;;;16.50;1.00;;;;;;5010933;28;20202;-76
2023/07/18 05:33:42;;;;;;;7.00;3.50;;;18.50;1.00;;;;;;5012124;28;20455;-75
2023/07/18 05:36:07;;;;;;;7.13;3.37;;;18.80;1.00;;;;;;5010369;28;20185;-74
2023/07/18 05:38:33;;;;;;;4.27;2.90;;;19.00;1.00;;;;;;5016885;28;20182;-75
2023/07/18 05:40:58;;;;;;;6.30;3.30;;;19.20;1.00;;;;;;5008289;28;20667;-75
2023/07/18 05:43:24;;;;;;;7.17;3.43;;;19.30;1.00;;;;;;5010963;28;20214;-75
2023/07/18 05:45:49;;;;;;;6.47;3.03;;;19.50;1.00;;;;;;5010198;28;20182;-75
2023/07/18 05:48:15;;;;;;;5.10;3.00;;;19.60;1.00;;;;;;5011433;28;20599;-76
2023/07/18 05:50:40;;;;;;;7.77;3.30;;;19.70;1.00;;;;;;5016577;28;20596;-75
2023/07/18 05:53:06;;;;;;;7.00;3.03;;;19.80;1.00;;;;;;5010435;28;20572;-75
2023/07/18 05:55:32;;;;;;;5.23;3.00;;;19.90;1.00;;;;;;5011233;28;20198;-74
2023/07/18 05:57:57;;;;;;;6.40;3.10;;;20.00;1.00;;;;;;5009596;28;20280;-76
2023/07/18 06:00:23;;;;;;;5.93;3.10;;;20.10;1.00;;;;;;5010885;28;20186;-76
2023/07/18 06:02:48;;;;;;;4.60;3.20;;;20.20;1.00;;;;;;5006539;28;20627;-74
2023/07/18 06:05:14;;;;;;;5.03;2.80;;;20.30;1.00;;;;;;5012133;28;20257;-76
2023/07/18 06:07:40;;;;;;;6.67;3.20;;;20.40;1.00;;;;;;5011676;28;20186;-77
2023/07/18 06:10:06;;;;;;;10.83;3.10;;;20.50;1.00;;;;;;5009308;28;20444;-75
2023/07/18 06:12:32;;;;;;;5.20;3.20;;;20.50;1.00;;;;;;5009446;28;20214;-76
2023/07/18 06:14:58;;;;;;;9.97;3.30;;;20.70;1.00;;;;;;5009433;28;20930;-75
2023/07/18 06:17:23;;;;;;;6.30;2.90;;;20.80;1.00;;;;;;5009491;28;20217;-75
2023/07/18 06:19:49;;;;;;;6.10;3.53;;;20.90;1.00;;;;;;5010563;28;20186;-75
2023/07/18 06:22:14;;;;;;;6.40;3.10;;;21.10;1.00;;;;;;5008253;28;20202;-76
2023/07/18 06:24:41;;;;;;;6.40;2.97;;;21.20;1.00;;;;;;5010655;28;20430;-75
2023/07/18 06:27:06;;;;;;;4.93;2.93;;;21.50;1.00;;;;;;5011666;28;20208;-75
2023/07/18 06:29:32;;;;;;;6.30;3.00;;;21.80;1.00;;;;;;5010246;28;20456;-74
2023/07/18 06:32:05;;;;;;;5.60;2.80;;;22.10;1.00;;;;;;5007097;28;20632;-75
2023/07/18 06:34:33;;;;;;;5.30;2.60;;;22.30;1.00;;;;;;5028818;28;20186;-75
2023/07/18 06:37:01;;;;;;;6.03;3.13;;;22.30;1.00;;;;;;5011088;28;20433;-75
2023/07/18 06:39:27;;;;;;;6.33;3.20;;;22.40;1.00;;;;;;5011684;28;20428;-74
2023/07/18 06:41:53;;;;;;;4.90;3.00;;;22.40;1.00;;;;;;5011533;28;20441;-75
2023/07/18 06:44:19;;;;;;;5.43;2.73;;;22.40;1.00;;;;;;5010998;28;20687;-75
2023/07/18 06:46:45;;;;;;;8.60;2.63;;;22.40;1.00;;;;;;5011006;28;20186;-75
2023/07/18 06:49:11;;;;;;;5.10;3.03;;;22.30;1.00;;;;;;5010947;28;20945;-75
2023/07/18 06:51:37;;;;;;;7.50;3.60;;;22.30;1.00;;;;;;5013908;28;20201;-75
2023/07/18 06:54:03;;;;;;;6.30;3.00;;;22.30;1.00;;;;;;5010711;28;20482;-74
2023/07/18 06:56:28;;;;;;;10.23;3.20;;;22.30;1.00;;;;;;5009811;28;20268;-77
2023/07/18 06:58:54;;;;;;;5.27;3.00;;;22.40;1.00;;;;;;5006712;28;20213;-73
2023/07/18 07:01:19;;;;;;;5.10;2.77;;;22.50;1.00;;;;;;5007866;28;20178;-71
2023/07/18 07:03:45;;;;;;;22.23;2.90;;;22.50;1.00;;;;;;5009435;28;20186;-71
2023/07/18 07:06:13;;;;;;;5.13;3.20;;;22.60;1.00;;;;;;5010005;28;20224;-74
2023/07/18 07:08:39;;;;;;;4.00;2.50;;;22.60;1.00;;;;;;5010129;28;20181;-74
2023/07/18 07:11:06;;;;;;;7.83;3.00;;;22.60;1.00;;;;;;5011809;28;20472;-74
2023/07/18 07:13:33;;;;;;;5.20;3.00;;;22.70;1.00;;;;;;5009700;28;20533;-74
2023/07/18 07:16:00;;;;;;;7.30;3.00;;;22.90;1.00;;;;;;5011144;28;20425;-74
2023/07/18 07:18:26;;;;;;;4.70;2.63;;;23.00;1.00;;;;;;5008666;28;20516;-74
2023/07/18 07:20:53;;;;;;;7.07;2.97;;;23.20;1.00;;;;;;5011377;28;20464;-75
2023/07/18 07:23:19;;;;;;;6.07;2.83;;;23.30;1.00;;;;;;5010439;28;20859;-75
2023/07/18 07:25:44;;;;;;;5.90;3.20;;;23.50;1.00;;;;;;5009796;28;20433;-74
2023/07/18 07:28:10;;;;;;;6.03;3.10;;;23.70;1.00;;;;;;5010542;28;20196;-74
2023/07/18 07:30:35;;;;;;;8.07;2.70;;;23.80;1.00;;;;;;5008748;28;20182;-77
2023/07/18 07:33:02;;;;;;;5.50;2.80;;;23.90;1.00;;;;;;5009577;28;20304;-75
2023/07/18 07:35:28;;;;;;;4.60;2.90;;;23.90;1.00;;;;;;5009964;28;20178;-74
2023/07/18 07:37:54;;;;;;;5.27;3.10;;;24.20;1.00;;;;;;5009688;28;20844;-74
2023/07/18 07:40:19;;;;;;;5.30;2.63;;;24.50;1.00;;;;;;5009269;28;20483;-74
2023/07/18 07:42:46;;;;;;;5.30;2.50;;;24.70;1.00;;;;;;5010145;28;20245;-75
2023/07/18 07:45:12;;;;;;;7.17;2.63;;;24.90;1.00;;;;;;5009762;28;20676;-74
2023/07/18 07:47:38;;;;;;;4.90;2.80;;;26.10;1.00;;;;;;5009811;28;20444;-74
2023/07/18 07:50:05;;;;;;;5.10;3.07;;;25.20;1.00;;;;;;5009782;28;20576;-74
2023/07/18 07:52:31;;;;;;;5.47;2.60;;;25.30;1.00;;;;;;5009076;28;20237;-74
2023/07/18 07:54:57;;;;;;;4.93;3.17;;;25.20;1.00;;;;;;5009396;28;20425;-75
2023/07/18 07:57:23;;;;;;;4.97;3.03;;;25.10;1.00;;;;;;5009490;28;20193;-75
2023/07/18 07:59:50;;;;;;;8.70;2.80;;;25.30;1.00;;;;;;5016268;28;20258;-75
2023/07/18 08:02:20;;;;;;;7.37;2.90;;;25.50;1.00;;;;;;5009014;28;20455;-75
2023/07/18 08:04:46;;;;;;;5.13;3.00;;;25.80;1.00;;;;;;5008287;28;20551;-75
2023/07/18 08:07:13;;;;;;;4.43;2.53;;;26.30;1.00;;;;;;5009058;28;20551;-75
2023/07/18 08:09:39;;;;;;;6.57;3.03;;;26.30;1.00;;;;;;5008550;28;20437;-75
2023/07/18 08:12:05;;;;;;;4.53;2.67;;;26.50;1.00;;;;;;5010202;28;20526;-75
2023/07/18 08:14:34;;;;;;;5.37;2.70;;;26.60;1.00;;;;;;5008369;28;20463;-75
2023/07/18 08:17:03;;;;;;;5.20;2.63;;;26.60;1.00;;;;;;5010191;28;21050;-75
2023/07/18 08:19:28;;;;;;;4.73;2.80;;;26.50;1.00;;;;;;5009804;28;20433;-75
2023/07/18 08:21:54;;;;;;;4.73;2.53;;;26.70;1.00;;;;;;5010407;28;20459;-76
2023/07/18 08:24:20;;;;;;;9.63;2.77;;;26.80;1.00;;;;;;5009337;28;20189;-76
2023/07/18 08:26:45;;;;;;;5.60;2.83;;;26.80;1.00;;;;;;5025025;28;20182;-75
2023/07/18 08:29:11;;;;;;;4.70;2.60;;;26.90;1.00;;;;;;5010138;28;20232;-75
2023/07/18 08:31:36;;;;;;;4.67;2.70;;;27.20;1.00;;;;;;5008772;28;20588;-75
2023/07/18 08:34:02;;;;;;;4.77;2.50;;;27.20;1.00;;;;;;5009585;28;20266;-76
2023/07/18 08:36:29;;;;;;;5.30;3.00;;;27.50;1.00;;;;;;5008377;28;20197;-75
2023/07/18 08:38:54;;;;;;;6.87;3.20;;;29.10;1.00;;;;;;5008657;28;20471;-75
2023/07/18 08:41:20;;;;;;;6.13;3.00;;;28.10;1.00;;;;;;5010290;28;20449;-75
2023/07/18 08:43:47;;;;;;;5.00;2.80;;;28.10;1.00;;;;;;5009550;28;20671;-75
2023/07/18 08:46:14;;;;;;;4.10;2.40;;;28.30;1.00;;;;;;5013394;28;20555;-75
2023/07/18 08:48:47;;;;;;;4.77;2.50;;;28.30;1.00;;;;;;5011917;28;20193;-75
2023/07/18 08:51:14;;;;;;;7.60;3.10;;;28.90;1.00;;;;;;5013070;28;20284;-75
2023/07/18 08:53:40;;;;;;;4.00;2.53;;;28.80;1.00;;;;;;5012989;28;20193;-75
2023/07/18 08:56:09;;;;;;;6.53;2.83;;;29.10;1.00;;;;;;5011840;28;20181;-75
2023/07/18 08:58:39;;;;;;;4.40;2.70;;;29.10;1.00;;;;;;5013296;28;20182;-75
2023/07/18 09:01:05;;;;;;;6.33;2.93;;;29.40;1.00;;;;;;5012895;28;20182;-75
2023/07/18 09:03:31;;;;;;;5.07;2.50;;;29.70;1.00;;;;;;5013007;28;20217;-75
2023/07/18 09:06:00;;;;;;;4.53;2.40;;;30.70;1.00;;;;;;5012130;28;20193;-76
2023/07/18 09:08:25;;;;;;;5.18;2.45;;;31.70;1.00;;;;;;5013204;28;20264;-76
2023/07/18 09:11:02;;;;;;;4.20;2.20;;;32.40;1.00;;;;;;5009344;28;20289;-74
2023/07/18 09:13:27;;;;;;;16.13;2.40;;;33.30;1.00;;;;;;5009914;28;20215;-77
2023/07/18 09:15:53;;;;;;;5.60;2.70;;;33.70;1.00;;;;;;5005888;28;20320;-77
2023/07/18 09:18:18;;;;;;;5.32;2.75;;;34.70;1.00;;;;;;5014208;28;20684;-77
2023/07/18 09:20:44;;;;;;;5.80;2.58;;;35.00;1.00;;;;;;5013251;28;20248;-76
2023/07/18 09:23:13;;;;;;;6.75;2.35;;;35.30;1.00;;;;;;5011728;28;20202;-79
2023/07/18 09:25:39;;;;;;;5.07;2.30;;;35.60;1.00;;;;;;5011092;28;20447;-77
2023/07/18 09:28:10;;;;;;;6.43;2.50;;;36.20;1.00;;;;;;5012748;28;20174;-77
2023/07/18 09:30:36;;;;;;;3.80;1.88;;;36.70;1.00;;;;;;5002917;28;20192;-77
2023/07/18 09:33:06;;;;;;;5.05;2.33;;;37.40;1.00;;;;;;5011990;28;20292;-78
2023/07/18 09:35:50;;;;;;;4.72;2.50;;;38.20;1.00;;;;;;5011267;28;20200;-79
2023/07/18 09:38:15;;;;;;;4.30;2.28;;;38.90;1.00;;;;;;5015491;28;20217;-79
2023/07/18 09:40:41;;;;;;;5.13;2.35;;;39.30;1.00;;;;;;5016895;28;20186;-78
2023/07/18 09:43:07;;;;;;;5.60;2.45;;;39.20;1.00;;;;;;5017500;28;20206;-79
2023/07/18 09:45:33;;;;;;;3.63;1.90;;;39.40;1.00;;;;;;5016684;28;20193;-78
2023/07/18 09:47:58;;;;;;;5.07;2.50;;;39.60;1.00;;;;;;5018504;28;20223;-78
2023/07/18 09:50:26;;;;;;;7.18;1.80;;;38.10;1.00;;;;;;5017838;28;20204;-78
2023/07/18 09:52:57;;;;;;;14.68;2.92;;;38.10;1.00;;;;;;5018034;28;20320;-79
2023/07/18 09:55:29;;;;;;;4.35;2.47;;;38.00;1.00;;;;;;5017201;28;20174;-78
2023/07/18 09:57:55;;;;;;;5.93;2.40;;;38.20;1.00;;;;;;5020312;28;20185;-78
2023/07/18 10:00:23;;;;;;;6.95;2.45;;;38.60;1.00;;;;;;5018156;28;20272;-78
2023/07/18 10:02:49;;;;;;;6.50;2.20;;;37.80;1.00;;;;;;5017126;28;20214;-78
2023/07/18 10:05:15;;;;;;;4.35;2.28;;;37.10;1.00;;;;;;5017562;28;20555;-80
2023/07/18 10:07:42;;;;;;;4.25;2.08;;;36.50;1.00;;;;;;5017674;28;20556;-79
2023/07/18 10:10:09;;;;;;;6.45;2.35;;;36.60;1.00;;;;;;5018498;28;20182;-78
2023/07/18 10:12:56;;;;;;;4.40;2.10;;;36.60;1.00;;;;;;5015795;28;20218;-79
2023/07/18 10:15:22;;;;;;;4.75;2.10;;;36.40;1.00;;;;;;5016010;28;20686;-77
2023/07/18 10:17:49;;;;;;;3.60;2.20;;;35.90;1.00;;;;;;5016736;28;20201;-77
2023/07/18 10:20:31;;;;;;;4.35;2.30;;;35.00;1.00;;;;;;5016339;28;20221;-79
2023/07/18 10:22:58;;;;;;;4.88;2.47;;;34.30;1.00;;;;;;5013454;28;20212;-76
2023/07/18 10:25:29;;;;;;;5.13;2.63;;;34.20;1.00;;;;;;5017261;28;20178;-78
2023/07/18 10:27:56;;;;;;;4.28;2.30;;;33.70;1.00;;;;;;5015650;28;20190;-76
2023/07/18 10:30:22;;;;;;;4.57;2.50;;;33.30;1.00;;;;;;5015061;28;20186;-78
2023/07/18 10:32:56;;;;;;;6.53;2.50;;;33.30;1.00;;;;;;5014934;28;20323;-76
2023/07/18 10:35:27;;;;;;;7.57;2.97;;;32.60;1.00;;;;;;5015069;28;20776;-76
2023/07/18 10:37:54;;;;;;;10.68;3.35;;;32.30;1.00;;;;;;5010223;28;20319;-76
2023/07/18 10:40:39;;;;;;;7.13;2.40;;;32.30;1.00;;;;;;5010072;28;20185;-78
2023/07/18 10:43:09;;;;;;;6.97;2.45;;;33.00;1.00;;;;;;5003979;28;20198;-75
2023/07/18 10:45:37;;;;;;;10.07;2.95;;;34.10;1.00;;;;;;5011765;28;20695;-77
2023/07/18 10:48:12;;;;;;;5.15;2.75;;;35.30;1.00;;;;;;5006821;28;20190;-76
2023/07/18 10:50:38;;;;;;;4.95;2.90;;;36.90;1.00;;;;;;5011985;28;20213;-76
2023/07/18 10:53:03;;;;;;;4.43;2.50;;;37.40;1.00;;;;;;5010337;28;20257;-77
2023/07/18 10:55:29;;;;;;;7.82;2.03;;;37.90;1.00;;;;;;5010499;28;20185;-77
2023/07/18 10:57:55;;;;;;;4.95;2.60;;;38.00;1.00;;;;;;5011584;28;20186;-77
2023/07/18 11:00:24;;;;;;;5.38;2.30;;;38.20;1.00;;;;;;5011585;28;20182;-78
2023/07/18 11:02:49;;;;;;;5.53;2.58;;;37.70;1.00;;;;;;5007400;28;20213;-78
2023/07/18 11:05:15;;;;;;;6.40;2.60;;;38.10;1.00;;;;;;5010233;28;20190;-79
2023/07/18 11:07:46;;;;;;;7.63;2.50;;;38.10;1.00;;;;;;5006235;28;20182;-77
2023/07/18 11:10:15;;;;;;;5.05;2.58;;;37.50;1.00;;;;;;5010124;28;20676;-78
2023/07/18 11:12:41;;;;;;;6.55;2.45;;;38.00;1.00;;;;;;5007727;28;20210;-76
2023/07/18 11:15:09;;;;;;;5.82;2.50;;;38.60;1.00;;;;;;5005686;28;20190;-78
2023/07/18 11:17:35;;;;;;;4.80;2.47;;;38.90;1.00;;;;;;4999626;28;20653;-78
2023/07/18 11:20:03;;;;;;;7.85;3.00;;;39.20;1.00;;;;;;5010023;28;20197;-78
2023/07/18 11:22:29;;;;;;;5.13;2.58;;;39.60;1.00;;;;;;5004450;28;20209;-78
2023/07/18 11:24:56;;;;;;;4.72;2.33;;;38.80;1.00;;;;;;5023891;28;20188;-77
2023/07/18 11:27:29;;;;;;;4.68;2.53;;;37.40;1.00;;;;;;5005377;28;20185;-77
2023/07/18 11:29:56;;;;;;;3.33;2.40;;;36.90;1.00;;;;;;5007071;28;20205;-78
2023/07/18 11:32:47;;;;;;;6.55;2.60;;;37.10;1.00;;;;;;5005242;28;20468;-77
2023/07/18 11:35:20;;;;;;;8.95;3.10;;;37.10;1.00;;;;;;5004290;28;20549;-77
2023/07/18 11:37:48;;;;;;;8.85;2.67;;;37.00;1.00;;;;;;5004231;28;20977;-77
2023/07/18 11:40:21;;;;;;;9.07;2.95;;;37.90;1.00;;;;;;5006555;28;20521;-77
2023/07/18 11:42:56;;;;;;;5.18;2.60;;;38.60;1.00;;;;;;5009073;28;20208;-78
2023/07/18 11:45:22;;;;;;;3.70;2.45;;;39.10;1.00;;;;;;5014537;28;20197;-78
2023/07/18 11:47:58;;;;;;;7.50;2.78;;;38.20;1.00;;;;;;5001541;28;20186;-77
2023/07/18 11:50:29;;;;;;;5.63;2.83;;;38.90;1.00;;;;;;5006638;28;20701;-77
2023/07/18 11:52:58;;;;;;;4.65;2.42;;;39.60;1.00;;;;;;5007553;28;20217;-79
2023/07/18 11:55:23;;;;;;;7.50;2.75;;;40.50;1.00;;;;;;5004308;28;20620;-79
2023/07/18 11:57:49;;;;;;;8.43;2.78;;;40.50;1.00;;;;;;5008069;28;20197;-77
2023/07/18 12:00:16;;;;;;;4.20;2.60;;;40.10;1.00;;;;;;5010225;28;20714;-77
2023/07/18 12:02:43;;;;;;;4.38;2.78;;;40.60;1.00;;;;;;5005311;28;20206;-76
2023/07/18 12:05:10;;;;;;;7.00;2.60;;;40.60;1.00;;;;;;5007693;28;20200;-78
2023/07/18 12:07:36;;;;;;;6.20;2.80;;;40.60;1.00;;;;;;5005031;28;20194;-76
2023/07/18 12:10:06;;;;;;;4.57;2.90;;;40.10;1.00;;;;;;5007422;28;20306;-76
2023/07/18 12:12:35;;;;;;;7.97;3.17;;;39.00;1.00;;;;;;5010210;28;20240;-77
2023/07/18 12:15:01;;;;;;;4.38;3.13;;;39.10;1.00;;;;;;5006814;28;20508;-77
2023/07/18 12:17:27;;;;;;;7.85;2.97;;;39.30;1.00;;;;;;5003214;28;20553;-77
2023/07/18 12:19:52;;;;;;;6.70;3.28;;;39.60;1.00;;;;;;5004389;28;20190;-80
2023/07/18 12:22:18;;;;;;;5.13;2.90;;;39.90;1.00;;;;;;5008750;28;20742;-78
2023/07/18 12:24:44;;;;;;;9.10;3.40;;;40.40;1.00;;;;;;5007220;28;20186;-76
2023/07/18 12:27:12;;;;;;;5.63;2.80;;;41.30;1.00;;;;;;5007885;28;20245;-76
2023/07/18 12:29:38;;;;;;;5.03;3.53;;;41.80;1.00;;;;;;5012519;28;20180;-77
2023/07/18 12:32:04;;;;;;;5.85;3.22;;;39.90;1.00;;;;;;5008858;28;20289;-77
2023/07/18 12:34:30;;;;;;;8.05;3.30;;;39.00;1.00;;;;;;5012585;28;20189;-77
2023/07/18 12:36:55;;;;;;;6.50;3.10;;;39.50;1.00;;;;;;5009725;28;20178;-77
2023/07/18 12:39:22;;;;;;;6.05;2.90;;;40.10;1.00;;;;;;5010196;28;20193;-76
2023/07/18 12:41:48;;;;;;;6.80;3.22;;;40.00;1.00;;;;;;5010001;28;20213;-77
2023/07/18 12:44:20;;;;;;;4.45;2.90;;;39.90;1.00;;;;;;5010037;28;20177;-77
2023/07/18 12:46:46;;;;;;;13.40;3.00;;;40.40;1.00;;;;;;5010172;28;20313;-78
2023/07/18 12:49:15;;;;;;;5.70;2.83;;;41.10;1.00;;;;;;5013402;28;20228;-80
2023/07/18 12:51:41;;;;;;;5.93;3.30;;;41.20;1.00;;;;;;5011841;28;20264;-78
2023/07/18 12:54:07;;;;;;;7.05;3.08;;;41.30;1.00;;;;;;5010523;28;20178;-78
2023/07/18 12:56:33;;;;;;;6.18;3.13;;;42.00;1.00;;;;;;5010990;28;20228;-78